White Mountain Summit Weather observations

Data are for 10 minute period ending at time listed.
 Day   Time   Solar   Ave.   Ave.  Ave.  Vector    Max.    Baro.  
  of    of     Rad.   Air    Rel.  Wind   Wind     Wind   Press.  
Year   Day            Temp.  Hum.  Speed  Dir.     Gust           
2014   (PST)   W/m2    F      %     mph   deg.      mph     mb.   
-------------------------------------------------------------------
 302   21:10   26.0    32   38.5    19    223.5    23.5   999.0 
 302   21:20  309.0    31   41.2    18    227.3    23.5   999.0 
 302   21:30  334.0    31   41.0    20    229.1    23.5   999.0 
 302   21:40  308.0    32   38.7    19    225.2    23.5   999.0 
 302   21:50  310.0    31   40.2    19    228.2    23.5   999.0 
 302   22:00  315.0    31   40.5    19    228.4    23.5   999.0 
 302   22:10  312.0    31   38.7    18    231.2    21.2   999.0 
 302   22:20  347.0    31   38.2    19    227.4    23.5   999.0 
 302   22:30  370.0    31   33.0    20    226.5    28.2   999.0 
 302   22:40  346.0    32   28.0    20    225.1    23.5   999.0 
 302   22:50  339.0    32   27.1    20    222.3    23.5   999.0 
 302   23:00  355.0    31   29.5    20    228.9    23.5   999.0 
 302   23:10  320.0    31   25.2    20    223.9    23.5   999.0 
 302   23:20  343.0    31   26.0    19    223.6    23.5   999.0 
 302   23:30  363.0    31   27.8    18    222.4    21.2   999.0 
 302   23:40  375.0    31   26.4    18    221.5    23.5   999.0 
 302   23:50  369.0    31   21.9    19    223.0    23.5   999.0 
 303    0:00  371.0    31   20.1    19    223.0    23.5   999.0 
 303    0:10  379.0    31   16.8    21    223.0    25.9   999.0 
 303    0:20  354.0    32   14.3    22    224.0    28.2   999.0 
 303    0:30  364.0    32   11.7    20    218.8    28.2   999.0 
 303    0:40  305.0    32   11.6    21    221.8    28.2   999.0 
 303    0:50  267.0    32   10.1    20    222.1    28.2   999.0 
 303    1:00  224.0    32    9.8    20    220.1    25.9   999.0 
 303    1:10  155.0    32    9.5    21    224.7    28.2   999.0 
 303    1:20  125.0    33    8.4    21    225.4    28.2   999.0 
 303    1:30  158.0    32    8.1    21    225.2    28.2   999.0 
 303    1:40  140.0    32    7.5    19    222.5    25.9   999.0 
 303    1:50  132.0    32    7.6    22    228.6    28.2   999.0 
 303    2:00  138.0    33    7.8    22    224.9    28.2   999.0 
 303    2:10  113.0    32    7.9    20    228.0    23.5   999.0 
 303    2:20  118.0    32    7.9    21    229.1    28.2   999.0 
 303    2:30  118.0    32    8.6    22    227.5    25.9   999.0 
 303    2:40  125.0    32    9.1    22    231.8    25.9   999.0 
 303    2:50  104.0    31    9.9    21    232.7    25.9   999.0 
 303    3:00   49.0    31   10.6    23    231.4    28.2   999.0 
 303    3:10    0.0    31   11.1    23    232.3    25.9   999.0 
 303    3:20    0.0    31   11.8    23    240.7    25.9   999.0 
 303    3:30    0.0    31    8.4    28    240.2    33.0   999.0 
 303    3:40    0.0    32    7.4    27    240.9    30.6   999.0 
 303    3:50    0.0    32    6.6    29    246.4    35.3   999.0 
 303    4:00    0.0    32    7.4    29    255.8    33.0   999.0 
 303    4:10    0.0    31    9.3    26    243.0    30.6   999.0 
 303    4:20    0.0    31    9.6    24    239.5    30.6   999.0 
 303    4:30    0.0    31    9.5    26    237.5    33.0   999.0 
 303    4:40    0.0    31    8.3    25    229.8    30.6   999.0 
 303    4:50    0.0    31    9.4    23    233.5    25.9   999.0 
 303    5:00    0.0    31    9.8    24    228.3    28.2   999.0 
 303    5:10    0.0    30   10.3    23    232.5    25.9   999.0 
 303    5:20    0.0    31    9.8    24    229.6    30.6   999.0 
 303    5:30    0.0    31    9.1    24    233.6    28.2   999.0 
 303    5:40    0.0    31    7.6    25    233.5    28.2   999.0 
 303    5:50    0.0    32    7.6    24    227.4    25.9   999.0 
 303    6:00    0.0    32    8.2    25    223.5    28.2   999.0 
 303    6:10    0.0    31    9.2    25    222.6    28.2   999.0 
 303    6:20    0.0    31   10.0    23    223.7    25.9   999.0 
 303    6:30   17.0    31    9.9    22    216.7    25.9   999.0 
 303    6:40    0.0    31   10.3    22    226.8    25.9   999.0 
 303    6:50    0.0    30   10.9    20    230.1    25.9   999.0 
 303    7:00    0.0    30   11.3    22    228.1    28.2   999.0 
 303    7:10    0.0    31   10.1    21    230.6    25.9   999.0 
 303    7:20    0.0    31   10.1    21    223.1    28.2   999.0 
 303    7:30    0.0    31   10.3    22    227.2    28.2   999.0 
 303    7:40    0.0    32    9.2    23    228.7    28.2   999.0 
 303    7:50   10.0    32    9.0    22    217.4    25.9   999.0 
 303    8:00  414.0    33    8.6    20    216.3    25.9   999.0 
 303    8:10  540.0    34    8.1    20    205.9    30.6   999.0 
 303    8:20  317.0    33    8.9    22    219.0    28.2   999.0 
 303    8:30  129.0    33    9.5    19    215.1    28.2   999.0 
 303    8:40  390.0    33    9.7    21    221.4    28.2   999.0 
 303    8:50  426.0    33    9.6    20    219.4    30.6   999.0 
 303    9:00  263.0    33    9.9    20    220.8    28.2   999.0 
 303    9:10   90.0    34   10.1    21    228.6    28.2   999.0 
 303    9:20    0.0    33   12.8    21    227.1    30.6   999.0 
 303    9:30    0.0    33   14.6    20    223.8    25.9   999.0 
 303    9:40  116.0    33   14.6    20    224.5    25.9   999.0 
 303    9:50   45.0    33   17.1    17    221.9    21.2   999.0 
 303   10:00    0.0    34   17.7    18    223.6    23.5   999.0 
 303   10:10    0.0    33   22.1    16    233.9    21.2   999.0 
 303   10:20    0.0    34   22.5    15    230.7    21.2   999.0 
 303   10:30    0.0    34   24.0    17    224.6    23.5   999.0 
 303   10:40    0.0    34   22.9    17    231.8    23.5   999.0 
 303   10:50    0.0    34   23.0    15    225.6    21.2   999.0 
 303   11:00    0.0    34   24.0    16    227.5    23.5   999.0 
 303   11:10    0.0    34   24.0    15    226.0    21.2   999.0 
 303   11:20    0.0    35   23.8    15    223.9    23.5   999.0 
 303   11:30    0.0    35   24.4    16    228.8    21.2   999.0 
 303   11:40    0.0    35   25.0    17    234.1    21.2   999.0 
 303   11:50    0.0    35   24.8    18    233.5    23.5   999.0 
 303   12:00    0.0    36   25.5    17    230.6    25.9   999.0 
 303   12:10    0.0    36   25.7    18    236.4    25.9   999.0 
 303   12:20    0.0    35   26.1    19    235.7    25.9   999.0 
 303   12:30    0.0    36   25.1    17    227.9    25.9   999.0 
 303   12:40    0.0    36   25.0    18    230.2    23.5   999.0 
 303   12:50    0.0    35   26.0    16    226.0    21.2   999.0 
 303   13:00    0.0    36   23.6    15    233.5    21.2   999.0 
 303   13:10    0.0    38   21.6    17    232.4    23.5   999.0 
 303   13:20    0.0    38   20.8    18    232.7    23.5   999.0 
 303   13:30    0.0    39   21.0    17    228.1    21.2   999.0 
 303   13:40    0.0    38   22.6    16    230.7    21.2   999.0 
 303   13:50    0.0    37   24.3    14    228.7    18.8   999.0 
 303   14:00    0.0    36   26.8    12    234.3    16.5   999.0 
 303   14:10    0.0    37   25.1    11    229.6    16.5   999.0 
 303   14:20    0.0    37   23.6    13    238.2    16.5   999.0 
 303   14:30    0.0    38   22.4    14    240.1    18.8   999.0 
 303   14:40    0.0    38   22.0    13    235.9    16.5   999.0 
 303   14:50    0.0    38   25.0    12    233.4    16.5   999.0 
 303   15:00    0.0    38   26.7    13    237.6    16.5   999.0 
 303   15:10    0.0    36   25.9    16    235.7    21.2   999.0 
 303   15:20    0.0    36   25.8    14    231.2    18.8   999.0 
 303   15:30    0.0    36   27.4    15    233.1    21.2   999.0 
 303   15:40    0.0    36   25.9    15    229.6    18.8   999.0 
 303   15:50    0.0    36   27.3    16    244.5    21.2   999.0 
 303   16:00    0.0    35   27.8    16    243.7    23.5   999.0 
 303   16:10    0.0    35   28.5    18    255.7    23.5   999.0 
 303   16:20    0.0    33   31.3    19    240.4    25.9   999.0 
 303   16:30    0.0    32   31.1    21    236.5    28.2   999.0 
 303   16:40    0.0    32   30.1    23    240.2    40.0   999.0 
 303   16:50    0.0    32   29.6    26    245.6    35.3   999.0 
 303   17:00    0.0    31   31.0    22    237.2    28.2   999.0 
 303   17:10    0.0    30   31.4    23    236.9    30.6   999.0 
 303   17:20    5.0    30   30.7    25    241.1    35.3   999.0 
 303   17:30   77.0    30   31.4    22    232.2    28.2   999.0 
 303   17:40  170.0    29   31.7    23    226.9    28.2   999.0 
 303   17:50  189.0    28   32.5    23    229.5    28.2   999.0 
 303   18:00  194.0    28   32.9    23    234.6    28.2   999.0 
 303   18:10  228.0    28   32.6    26    245.6    35.3   999.0 
 303   18:20  223.0    28   32.2    25    238.5    37.7   999.0 
 303   18:30  164.0    28   31.5    27    241.0    35.3   999.0 
 303   18:40  182.0    28   31.7    30    250.9    42.4   999.0 
 303   18:50  338.0    28   32.0    32    252.9    37.7   999.0 
 303   19:00  440.0    27   32.8    30    257.1    40.0   999.0 
 303   19:10  560.0    27   34.2    28    255.6    40.0   999.0 
 303   19:20  574.0    27   33.2    30    246.9    40.0   999.0 
 303   19:30  749.0    27   32.8    31    258.3    40.0   999.0 
 303   19:40  698.0    27   32.4    32    246.4    44.7   999.0 
 303   19:50  812.0    26   32.5    32    251.7    42.4   999.0 
 303   20:00  1741.0    26   33.0    31    250.4    42.4   999.0 
 303   20:10  2267.0    25   34.7    31    239.6    40.0   999.0 
 303   20:20  2732.0    26   36.5    32    248.2    44.7   999.0 
 303   20:30  3916.0    25   38.4    34    249.1    42.4   999.0 
 303   20:40  4857.0    25   38.3    33    255.6    42.4   999.0 
 303   20:50  5228.0    25   38.4    31    233.9    42.4   999.0 
 303   21:00  5400.0    24   38.7    31    228.3    37.7   999.0 

Return to White Mountain graphs page.


Western Regional Climate Center,wrcc@dri.edu